Kerrick, TX (79051)

7:11 AM CDT on August 27, 2014 (GMT -0500)
Dalhart Municipal | Change Station
CLOSE
Current Station
Airport
Location: Dalhart,
Elevation: 3990 ft
Nearby Weather Stations

Elev 3990 ft 36.03 °N, 102.55 °W | Updated 18 minutes ago

Clear
Clear
66 °F
Feels Like 66 °F
N
6
Wind Variable Wind from SE

Today
High -- | Low -- °F
--% Chance of Precip.
Yesterday
High -- | Low -- °F
Precip. -- in
7:16 AM 8:23 PM
Waxing Crescent, 3% visible
Pressure 30.03 in
Visibility 6.0 miles
Clouds Clear
Dew Point 64 °F
Humidity 93%
Rainfall 0.02 in
Snow Depth Not available.
UV 0 out of 12
Pollen 9.20 out of 12
Air Quality Not available.
Flu Activity Not available.
METAR KDHT 271153Z AUTO 13005KT 6SM BR CLR 19/18 A3017 RMK AO2 SLP167 60001 70052 T01890178 10194 20189 58004

More Conditions Fewer Conditions

Pressure 30.03 in
Visibility 6.0 miles
Clouds Clear
Dew Point 64 °F
Humidity 93%
Rainfall 0.02 in
Snow Depth Not available.
UV 0 out of 12
Pollen 9.20 out of 12
Air Quality Not available.
Flu Activity Not available.
METAR KDHT 271153Z AUTO 13005KT 6SM BR CLR 19/18 A3017 RMK AO2 SLP167 60001 70052 T01890178 10194 20189 58004

More Conditions Fewer Conditions

10-Day Weather Forecast

Almanac

Astronomy

Aug. 27, 2014 Rise Set
Actual Time 7:16 AM CDT 8:23 PM CDT
Civil Twilight 6:49 AM CDT 8:50 PM CDT
Nautical Twilight 6:17 AM CDT 9:22 PM CDT
Astronomical Twilight 5:45 AM CDT 9:54 PM CDT
Moon 9:09 AM CDT 9:22 PM CDT
Length of Visible Light 14h 00m
Length of Day
13h 07m
Tomorrow will be 2m 11s shorter.
Waxing Crescent, 3% of the Moon is Illuminated
Today
Waxing Crescent
Sep 2
First Quarter
Sep 8
Full
Sep 15
Last Quarter
Sep 24
New

Today's Extremes

State Highs State Lows

Community

WunderPhotos

Upload Photos

1,747,674 photos uploaded!

Nearby

Snow Depth

Station Depth Elevation
No new snow has been reported.

Earthquake Activity

City Distance Mag. Time & Date
No recent earthquake activity has been reported nearby.
Minimum magnitude displayed is 2.5.

Coastal Water Temperatures

Place Temperature
No Stations Reporting

Nearby Weather Stations